Accueil
METAR-TAF:

METAR-TAF

Aéroports :

Plate-forme pétrolière

Hoorn-a, Pays-Bas

latitude: 52-55-05N, longitude: 4-09-01E, altitude: 41 m

Observation

Le bulletin a été fait il y a 32 minutes, à 23:55 UTC
Vent 29 kt de sud-ouest
Température 9°C
Humidité 76%
Pression 995 hPa
Visibilité: 8000 m
Quelques nuages à une hauteur de 1700 ft
Quelques nuages à une hauteur de 1800 ft, Cumulonimbus.
Nuages épars à une hauteur de 2000 ft
Nuages fragmentés à une hauteur de 3000 ft
bruine

METAR: EHQE 112355Z AUTO 22029KT 8000 DZ FEW017 FEW018CB SCT020 BKN030 09/05 Q0995 W///H///

Heure: 01:27 (00:27 UTC)


TAF: absent

Observations et prévisions météorologiques de plus de 4000 aéroports (messages METAR et TAF).

Les stations disponibles sont représentées par des disques jaunes et rouges sur la carte.

Passer la souris dessus pour voir le nom de la station.

Cliquer dessus pour voir les observations et prévisions météorologiques.

Pour changer de carte: cliquez sur les boutons verts avec une croix noire pour zoomer, sur le bouton vert avec un tiret pour effectuer un zoom arrière, ou sur les flèches vertes pour les cartes adjacentes.


METAR-TAF: